Terminal Aerodrome Forecast
Issued by NWS Charleston, WV

Current Version | Previous Version | Graphics & Text | Print | Product List | Glossary On
Versions: 1 2 3 4 5 6 7 8 9 10 11 12 13 14 15 16 17 18 19 20 21 22 23 24
000
FTUS41 KRLX 211100
TAFPKB
TAF
KPKB 211131Z 2112/2212 18008KT P6SM FEW070
     FM211400 21007KT P6SM VCTS BKN025CB
     FM211800 25007KT P6SM VCTS BKN025CB
     FM212000 25011G22KT P6SM VCTS BKN025CB
     FM212100 25013G26KT P6SM BKN035
     FM212300 29011G23KT P6SM SCT040
     FM220300 31008G16KT P6SM BKN040
     FM220500 30005KT 6SM BR BKN035
     FM220900 33004KT 3SM BR BKN015=

USA.gov is the U.S. government's official web portal to all federal, state and local government web resources and services.